sensor_id;sensor_type;location;lat;lon;timestamp;pressure;altitude;pressure_sealevel;temperature;humidity
20620;BME280;10469;42.720;23.252;2024-01-25T00:00:20;95456.00;;;3.53;100.00
20620;BME280;10469;42.720;23.252;2024-01-25T00:02:46;95444.28;;;3.85;100.00
20620;BME280;10469;42.720;23.252;2024-01-25T00:05:12;95419.13;;;3.96;100.00
20620;BME280;10469;42.720;23.252;2024-01-25T00:07:50;95429.00;;;4.32;100.00
20620;BME280;10469;42.720;23.252;2024-01-25T00:10:17;95396.88;;;4.26;100.00
20620;BME280;10469;42.720;23.252;2024-01-25T00:12:43;95405.47;;;4.43;100.00
20620;BME280;10469;42.720;23.252;2024-01-25T00:15:09;95379.16;;;4.48;100.00
20620;BME280;10469;42.720;23.252;2024-01-25T00:17:35;95357.63;;;4.58;100.00
20620;BME280;10469;42.720;23.252;2024-01-25T00:20:01;95345.47;;;4.70;100.00
20620;BME280;10469;42.720;23.252;2024-01-25T00:22:27;95338.75;;;4.53;100.00
20620;BME280;10469;42.720;23.252;2024-01-25T00:24:52;95339.19;;;4.35;100.00
20620;BME280;10469;42.720;23.252;2024-01-25T00:27:18;95346.25;;;4.28;100.00
20620;BME280;10469;42.720;23.252;2024-01-25T00:29:44;95347.34;;;4.34;100.00
20620;BME280;10469;42.720;23.252;2024-01-25T00:32:09;95349.47;;;4.23;100.00
20620;BME280;10469;42.720;23.252;2024-01-25T00:34:35;95364.44;;;4.46;100.00
20620;BME280;10469;42.720;23.252;2024-01-25T00:37:01;95352.81;;;4.47;100.00
20620;BME280;10469;42.720;23.252;2024-01-25T00:39:27;95380.47;;;4.74;100.00
20620;BME280;10469;42.720;23.252;2024-01-25T00:41:58;95375.97;;;4.74;100.00
20620;BME280;10469;42.720;23.252;2024-01-25T00:44:24;95376.41;;;4.93;100.00
20620;BME280;10469;42.720;23.252;2024-01-25T00:46:50;95370.31;;;4.77;100.00
20620;BME280;10469;42.720;23.252;2024-01-25T00:49:17;95349.50;;;4.81;100.00
20620;BME280;10469;42.720;23.252;2024-01-25T00:51:46;95353.19;;;4.65;100.00
20620;BME280;10469;42.720;23.252;2024-01-25T00:54:15;95354.75;;;4.38;100.00
20620;BME280;10469;42.720;23.252;2024-01-25T00:56:42;95359.53;;;4.28;100.00
20620;BME280;10469;42.720;23.252;2024-01-25T00:59:08;95317.00;;;4.07;100.00
20620;BME280;10469;42.720;23.252;2024-01-25T01:01:34;95366.69;;;4.13;100.00
20620;BME280;10469;42.720;23.252;2024-01-25T01:03:59;95366.31;;;4.01;100.00
20620;BME280;10469;42.720;23.252;2024-01-25T01:06:25;95364.69;;;4.00;100.00
20620;BME280;10469;42.720;23.252;2024-01-25T01:08:51;95357.19;;;4.03;100.00
20620;BME280;10469;42.720;23.252;2024-01-25T01:11:18;95351.34;;;3.93;100.00
20620;BME280;10469;42.720;23.252;2024-01-25T01:13:44;95353.44;;;3.98;100.00
20620;BME280;10469;42.720;23.252;2024-01-25T01:16:10;95330.25;;;4.21;100.00
20620;BME280;10469;42.720;23.252;2024-01-25T01:18:35;95314.56;;;4.41;100.00
20620;BME280;10469;42.720;23.252;2024-01-25T01:21:02;95290.19;;;4.38;100.00
20620;BME280;10469;42.720;23.252;2024-01-25T01:23:27;95300.59;;;4.54;100.00
20620;BME280;10469;42.720;23.252;2024-01-25T01:25:53;95286.09;;;4.57;100.00
20620;BME280;10469;42.720;23.252;2024-01-25T01:28:18;95287.03;;;4.70;100.00
20620;BME280;10469;42.720;23.252;2024-01-25T01:30:44;95285.66;;;4.74;100.00
20620;BME280;10469;42.720;23.252;2024-01-25T01:33:17;95302.00;;;4.93;100.00
20620;BME280;10469;42.720;23.252;2024-01-25T01:35:48;95295.53;;;5.02;100.00
20620;BME280;10469;42.720;23.252;2024-01-25T01:38:14;95282.84;;;5.04;100.00
20620;BME280;10469;42.720;23.252;2024-01-25T01:40:40;95292.28;;;5.07;100.00
20620;BME280;10469;42.720;23.252;2024-01-25T01:43:05;95277.34;;;5.06;100.00
20620;BME280;10469;42.720;23.252;2024-01-25T01:45:31;95270.09;;;5.21;100.00
20620;BME280;10469;42.720;23.252;2024-01-25T01:47:57;95259.16;;;5.09;100.00
20620;BME280;10469;42.720;23.252;2024-01-25T01:50:24;95265.88;;;5.05;100.00
20620;BME280;10469;42.720;23.252;2024-01-25T01:52:50;95263.75;;;4.94;100.00
20620;BME280;10469;42.720;23.252;2024-01-25T01:55:17;95271.59;;;5.02;100.00
20620;BME280;10469;42.720;23.252;2024-01-25T01:57:44;95254.59;;;5.24;100.00
20620;BME280;10469;42.720;23.252;2024-01-25T02:00:10;95249.50;;;5.29;100.00
20620;BME280;10469;42.720;23.252;2024-01-25T02:02:36;95243.81;;;5.39;100.00
20620;BME280;10469;42.720;23.252;2024-01-25T02:05:02;95254.53;;;5.18;100.00
20620;BME280;10469;42.720;23.252;2024-01-25T02:07:28;95248.34;;;5.11;100.00
20620;BME280;10469;42.720;23.252;2024-01-25T02:09:53;95241.28;;;4.96;100.00
20620;BME280;10469;42.720;23.252;2024-01-25T02:12:19;95258.38;;;4.87;100.00
20620;BME280;10469;42.720;23.252;2024-01-25T02:14:45;95263.13;;;4.92;100.00
20620;BME280;10469;42.720;23.252;2024-01-25T02:17:11;95274.31;;;4.87;100.00
20620;BME280;10469;42.720;23.252;2024-01-25T02:19:36;95274.34;;;4.66;100.00
20620;BME280;10469;42.720;23.252;2024-01-25T02:22:04;95265.63;;;4.50;100.00
20620;BME280;10469;42.720;23.252;2024-01-25T02:24:30;95275.78;;;4.25;100.00
20620;BME280;10469;42.720;23.252;2024-01-25T02:26:56;95272.97;;;4.12;100.00
20620;BME280;10469;42.720;23.252;2024-01-25T02:29:22;95269.72;;;3.95;100.00
20620;BME280;10469;42.720;23.252;2024-01-25T02:31:47;95251.13;;;3.95;100.00
20620;BME280;10469;42.720;23.252;2024-01-25T02:34:13;95262.66;;;3.88;100.00
20620;BME280;10469;42.720;23.252;2024-01-25T02:36:39;95260.22;;;3.86;100.00
20620;BME280;10469;42.720;23.252;2024-01-25T02:39:04;95251.69;;;3.91;100.00
20620;BME280;10469;42.720;23.252;2024-01-25T02:41:31;95270.97;;;3.99;100.00
20620;BME280;10469;42.720;23.252;2024-01-25T02:43:57;95253.94;;;4.09;100.00
20620;BME280;10469;42.720;23.252;2024-01-25T02:46:23;95232.78;;;4.15;100.00
20620;BME280;10469;42.720;23.252;2024-01-25T02:48:48;95246.00;;;4.51;100.00
20620;BME280;10469;42.720;23.252;2024-01-25T02:51:14;95226.38;;;4.74;100.00
20620;BME280;10469;42.720;23.252;2024-01-25T02:53:40;95231.59;;;4.61;100.00
20620;BME280;10469;42.720;23.252;2024-01-25T02:56:06;95219.06;;;4.76;100.00
20620;BME280;10469;42.720;23.252;2024-01-25T02:58:32;95196.31;;;4.95;100.00
20620;BME280;10469;42.720;23.252;2024-01-25T03:00:58;95224.06;;;5.48;100.00
20620;BME280;10469;42.720;23.252;2024-01-25T03:03:23;95220.75;;;5.88;100.00
20620;BME280;10469;42.720;23.252;2024-01-25T03:05:50;95217.22;;;6.22;100.00
20620;BME280;10469;42.720;23.252;2024-01-25T03:08:16;95216.84;;;6.45;100.00
20620;BME280;10469;42.720;23.252;2024-01-25T03:10:41;95205.41;;;6.58;100.00
20620;BME280;10469;42.720;23.252;2024-01-25T03:13:07;95205.19;;;6.66;100.00
20620;BME280;10469;42.720;23.252;2024-01-25T03:15:32;95208.88;;;6.71;100.00
20620;BME280;10469;42.720;23.252;2024-01-25T03:17:58;95205.19;;;6.79;100.00
20620;BME280;10469;42.720;23.252;2024-01-25T03:20:24;95216.28;;;6.83;100.00
20620;BME280;10469;42.720;23.252;2024-01-25T03:22:49;95208.50;;;6.88;100.00
20620;BME280;10469;42.720;23.252;2024-01-25T03:25:15;95210.34;;;6.87;100.00
20620;BME280;10469;42.720;23.252;2024-01-25T03:27:41;95206.41;;;6.63;100.00
20620;BME280;10469;42.720;23.252;2024-01-25T03:30:07;95204.38;;;6.72;100.00
20620;BME280;10469;42.720;23.252;2024-01-25T03:32:35;95213.38;;;6.77;100.00
20620;BME280;10469;42.720;23.252;2024-01-25T03:35:01;95203.16;;;6.74;100.00
20620;BME280;10469;42.720;23.252;2024-01-25T03:37:27;95194.34;;;6.87;100.00
20620;BME280;10469;42.720;23.252;2024-01-25T03:39:53;95186.75;;;6.84;100.00
20620;BME280;10469;42.720;23.252;2024-01-25T03:42:18;95200.91;;;6.91;100.00
20620;BME280;10469;42.720;23.252;2024-01-25T03:44:44;95201.72;;;6.85;100.00
20620;BME280;10469;42.720;23.252;2024-01-25T03:47:11;95216.06;;;6.77;100.00
20620;BME280;10469;42.720;23.252;2024-01-25T03:49:36;95217.91;;;6.77;100.00
20620;BME280;10469;42.720;23.252;2024-01-25T03:52:04;95205.19;;;6.86;100.00
20620;BME280;10469;42.720;23.252;2024-01-25T03:54:29;95187.97;;;6.82;100.00
20620;BME280;10469;42.720;23.252;2024-01-25T03:56:55;95145.31;;;6.68;100.00
20620;BME280;10469;42.720;23.252;2024-01-25T03:59:20;95181.63;;;6.76;100.00
20620;BME280;10469;42.720;23.252;2024-01-25T04:01:46;95182.25;;;6.71;100.00
20620;BME280;10469;42.720;23.252;2024-01-25T04:04:13;95180.59;;;6.57;100.00
20620;BME280;10469;42.720;23.252;2024-01-25T04:06:44;95179.34;;;6.46;100.00
20620;BME280;10469;42.720;23.252;2024-01-25T04:09:13;95173.13;;;6.06;100.00
20620;BME280;10469;42.720;23.252;2024-01-25T04:11:40;95180.31;;;6.12;100.00
20620;BME280;10469;42.720;23.252;2024-01-25T04:14:06;95182.38;;;6.10;100.00
20620;BME280;10469;42.720;23.252;2024-01-25T04:16:33;95190.59;;;5.67;100.00
20620;BME280;10469;42.720;23.252;2024-01-25T04:18:59;95185.47;;;5.66;100.00
20620;BME280;10469;42.720;23.252;2024-01-25T04:21:24;95201.31;;;5.46;100.00
20620;BME280;10469;42.720;23.252;2024-01-25T04:23:50;95188.72;;;5.26;100.00
20620;BME280;10469;42.720;23.252;2024-01-25T04:26:15;95173.88;;;5.04;100.00
20620;BME280;10469;42.720;23.252;2024-01-25T04:28:42;95186.03;;;5.20;100.00
20620;BME280;10469;42.720;23.252;2024-01-25T04:31:08;95190.03;;;5.02;100.00
20620;BME280;10469;42.720;23.252;2024-01-25T04:33:33;95188.75;;;4.70;100.00
20620;BME280;10469;42.720;23.252;2024-01-25T04:35:59;95207.31;;;4.64;100.00
20620;BME280;10469;42.720;23.252;2024-01-25T04:38:25;95217.00;;;4.50;100.00
20620;BME280;10469;42.720;23.252;2024-01-25T04:40:50;95223.19;;;4.36;100.00
20620;BME280;10469;42.720;23.252;2024-01-25T04:43:16;95231.28;;;4.27;100.00
20620;BME280;10469;42.720;23.252;2024-01-25T04:45:41;95235.16;;;4.46;100.00
20620;BME280;10469;42.720;23.252;2024-01-25T04:48:07;95222.75;;;4.53;100.00
20620;BME280;10469;42.720;23.252;2024-01-25T04:50:33;95235.72;;;4.63;100.00
20620;BME280;10469;42.720;23.252;2024-01-25T04:53:02;95227.50;;;4.58;100.00
20620;BME280;10469;42.720;23.252;2024-01-25T04:55:27;95238.63;;;4.47;100.00
20620;BME280;10469;42.720;23.252;2024-01-25T04:57:53;95240.94;;;4.57;100.00
20620;BME280;10469;42.720;23.252;2024-01-25T05:00:22;95197.19;;;4.52;100.00
20620;BME280;10469;42.720;23.252;2024-01-25T05:02:48;95220.16;;;4.60;100.00
20620;BME280;10469;42.720;23.252;2024-01-25T05:05:15;95229.94;;;4.81;100.00
20620;BME280;10469;42.720;23.252;2024-01-25T05:07:41;95245.97;;;4.94;100.00
20620;BME280;10469;42.720;23.252;2024-01-25T05:10:07;95234.31;;;4.95;100.00
20620;BME280;10469;42.720;23.252;2024-01-25T05:12:33;95247.81;;;4.94;100.00
20620;BME280;10469;42.720;23.252;2024-01-25T05:14:59;95262.84;;;4.80;100.00
20620;BME280;10469;42.720;23.252;2024-01-25T05:17:24;95258.06;;;4.97;100.00
20620;BME280;10469;42.720;23.252;2024-01-25T05:19:51;95238.34;;;4.85;100.00
20620;BME280;10469;42.720;23.252;2024-01-25T05:22:16;95278.09;;;4.99;100.00
20620;BME280;10469;42.720;23.252;2024-01-25T05:24:42;95278.34;;;5.04;100.00
20620;BME280;10469;42.720;23.252;2024-01-25T05:27:08;95261.88;;;5.16;100.00
20620;BME280;10469;42.720;23.252;2024-01-25T05:29:33;95275.06;;;5.31;100.00
20620;BME280;10469;42.720;23.252;2024-01-25T05:31:59;95265.38;;;5.51;100.00
20620;BME280;10469;42.720;23.252;2024-01-25T05:34:25;95249.41;;;5.44;100.00
20620;BME280;10469;42.720;23.252;2024-01-25T05:36:50;95254.31;;;5.47;100.00
20620;BME280;10469;42.720;23.252;2024-01-25T05:39:16;95256.28;;;5.67;100.00
20620;BME280;10469;42.720;23.252;2024-01-25T05:41:42;95270.47;;;5.81;100.00
20620;BME280;10469;42.720;23.252;2024-01-25T05:44:12;95281.34;;;5.86;100.00
20620;BME280;10469;42.720;23.252;2024-01-25T05:46:37;95278.25;;;5.82;100.00
20620;BME280;10469;42.720;23.252;2024-01-25T05:49:03;95284.97;;;5.71;100.00
20620;BME280;10469;42.720;23.252;2024-01-25T05:51:29;95302.78;;;5.77;100.00
20620;BME280;10469;42.720;23.252;2024-01-25T05:53:54;95298.03;;;5.66;100.00
20620;BME280;10469;42.720;23.252;2024-01-25T05:56:20;95312.03;;;5.82;100.00
20620;BME280;10469;42.720;23.252;2024-01-25T05:58:45;95311.41;;;5.79;100.00
20620;BME280;10469;42.720;23.252;2024-01-25T06:01:11;95320.53;;;5.92;100.00
20620;BME280;10469;42.720;23.252;2024-01-25T06:03:36;95287.25;;;5.81;100.00
20620;BME280;10469;42.720;23.252;2024-01-25T06:06:02;95286.97;;;5.97;100.00
20620;BME280;10469;42.720;23.252;2024-01-25T06:08:28;95275.19;;;5.85;100.00
20620;BME280;10469;42.720;23.252;2024-01-25T06:10:53;95317.28;;;5.96;100.00
20620;BME280;10469;42.720;23.252;2024-01-25T06:13:19;95305.38;;;5.99;100.00
20620;BME280;10469;42.720;23.252;2024-01-25T06:15:44;95318.75;;;6.12;100.00
20620;BME280;10469;42.720;23.252;2024-01-25T06:18:10;95321.19;;;6.07;100.00
20620;BME280;10469;42.720;23.252;2024-01-25T09:08:12;95333.66;;;8.40;100.00
20620;BME280;10469;42.720;23.252;2024-01-25T09:10:38;95346.38;;;8.45;100.00
20620;BME280;10469;42.720;23.252;2024-01-25T09:13:04;95341.03;;;8.51;100.00
20620;BME280;10469;42.720;23.252;2024-01-25T09:15:29;95343.97;;;8.75;100.00
20620;BME280;10469;42.720;23.252;2024-01-25T09:17:55;95336.31;;;8.47;100.00
20620;BME280;10469;42.720;23.252;2024-01-25T09:20:21;95342.31;;;8.80;100.00
20620;BME280;10469;42.720;23.252;2024-01-25T09:22:46;95349.25;;;8.95;100.00
20620;BME280;10469;42.720;23.252;2024-01-25T09:25:12;95349.72;;;8.85;100.00
20620;BME280;10469;42.720;23.252;2024-01-25T09:27:37;95315.59;;;8.16;100.00
20620;BME280;10469;42.720;23.252;2024-01-25T09:30:05;95325.56;;;8.53;100.00
20620;BME280;10469;42.720;23.252;2024-01-25T09:32:31;95330.88;;;9.30;100.00
20620;BME280;10469;42.720;23.252;2024-01-25T09:34:56;95332.50;;;10.61;100.00
20620;BME280;10469;42.720;23.252;2024-01-25T09:37:22;95332.53;;;10.24;95.56
20620;BME280;10469;42.720;23.252;2024-01-25T09:39:52;95328.75;;;8.75;100.00
20620;BME280;10469;42.720;23.252;2024-01-25T09:42:18;95327.28;;;8.35;100.00
20620;BME280;10469;42.720;23.252;2024-01-25T09:44:44;95309.72;;;8.59;100.00
20620;BME280;10469;42.720;23.252;2024-01-25T09:47:10;95317.50;;;8.09;100.00
20620;BME280;10469;42.720;23.252;2024-01-25T09:49:36;95311.47;;;8.26;100.00
20620;BME280;10469;42.720;23.252;2024-01-25T09:52:03;95303.16;;;7.90;100.00
20620;BME280;10469;42.720;23.252;2024-01-25T13:01:05;95074.28;;;11.60;73.19
20620;BME280;10469;42.720;23.252;2024-01-25T13:03:31;95063.44;;;11.54;71.20
20620;BME280;10469;42.720;23.252;2024-01-25T13:05:56;95070.06;;;11.00;74.05
20620;BME280;10469;42.720;23.252;2024-01-25T13:08:22;95075.28;;;10.18;83.15
20620;BME280;10469;42.720;23.252;2024-01-25T13:10:47;95077.22;;;9.99;86.30
20620;BME280;10469;42.720;23.252;2024-01-25T13:13:13;95076.53;;;10.34;82.07
20620;BME280;10469;42.720;23.252;2024-01-25T13:15:38;95068.13;;;10.30;82.04
20620;BME280;10469;42.720;23.252;2024-01-25T13:18:04;95073.53;;;10.65;79.98
20620;BME280;10469;42.720;23.252;2024-01-25T13:20:30;95086.25;;;10.58;81.85
20620;BME280;10469;42.720;23.252;2024-01-25T13:22:55;95094.28;;;10.16;87.86
20620;BME280;10469;42.720;23.252;2024-01-25T13:25:21;95093.66;;;9.72;92.09
20620;BME280;10469;42.720;23.252;2024-01-25T13:27:46;95110.59;;;9.66;93.47
20620;BME280;10469;42.720;23.252;2024-01-25T13:30:12;95111.00;;;9.33;99.14
20620;BME280;10469;42.720;23.252;2024-01-25T13:32:39;95078.66;;;9.35;100.00
20620;BME280;10469;42.720;23.252;2024-01-25T13:35:04;95081.00;;;8.88;100.00
20620;BME280;10469;42.720;23.252;2024-01-25T13:37:30;95092.13;;;8.85;100.00
20620;BME280;10469;42.720;23.252;2024-01-25T13:39:56;95079.91;;;8.77;100.00
20620;BME280;10469;42.720;23.252;2024-01-25T13:42:21;95088.75;;;8.52;100.00
20620;BME280;10469;42.720;23.252;2024-01-25T13:44:47;95091.53;;;8.33;100.00
20620;BME280;10469;42.720;23.252;2024-01-25T13:47:12;95082.22;;;8.17;100.00
20620;BME280;10469;42.720;23.252;2024-01-25T13:49:38;95076.72;;;8.05;100.00
20620;BME280;10469;42.720;23.252;2024-01-25T13:52:04;95082.72;;;8.00;100.00
20620;BME280;10469;42.720;23.252;2024-01-25T13:54:30;95079.44;;;7.98;100.00
20620;BME280;10469;42.720;23.252;2024-01-25T13:56:55;95087.34;;;7.80;100.00
20620;BME280;10469;42.720;23.252;2024-01-25T13:59:21;95087.16;;;7.82;100.00
20620;BME280;10469;42.720;23.252;2024-01-25T14:01:47;95099.16;;;7.59;100.00
20620;BME280;10469;42.720;23.252;2024-01-25T14:04:12;95087.19;;;7.68;100.00
20620;BME280;10469;42.720;23.252;2024-01-25T14:06:39;95106.53;;;7.64;100.00
20620;BME280;10469;42.720;23.252;2024-01-25T14:09:04;95105.31;;;7.60;100.00
20620;BME280;10469;42.720;23.252;2024-01-25T14:11:30;95119.00;;;7.76;100.00
20620;BME280;10469;42.720;23.252;2024-01-25T14:13:56;95113.72;;;7.63;100.00
20620;BME280;10469;42.720;23.252;2024-01-25T14:16:22;95087.09;;;7.50;100.00
20620;BME280;10469;42.720;23.252;2024-01-25T14:18:47;95107.84;;;7.48;100.00
20620;BME280;10469;42.720;23.252;2024-01-25T14:21:13;95117.25;;;7.50;100.00
20620;BME280;10469;42.720;23.252;2024-01-25T14:23:38;95110.28;;;7.49;100.00
20620;BME280;10469;42.720;23.252;2024-01-25T14:26:04;95120.31;;;7.54;100.00
20620;BME280;10469;42.720;23.252;2024-01-25T14:28:30;95122.81;;;7.56;100.00
20620;BME280;10469;42.720;23.252;2024-01-25T14:30:55;95118.28;;;7.56;100.00
20620;BME280;10469;42.720;23.252;2024-01-25T14:33:21;95121.81;;;7.43;100.00
20620;BME280;10469;42.720;23.252;2024-01-25T14:35:46;95128.75;;;7.51;100.00
20620;BME280;10469;42.720;23.252;2024-01-25T14:38:12;95124.53;;;7.30;100.00
20620;BME280;10469;42.720;23.252;2024-01-25T14:40:38;95124.13;;;7.26;100.00
20620;BME280;10469;42.720;23.252;2024-01-25T14:43:03;95144.84;;;7.31;100.00
20620;BME280;10469;42.720;23.252;2024-01-25T14:45:29;95137.63;;;7.38;100.00
20620;BME280;10469;42.720;23.252;2024-01-25T14:47:56;95151.34;;;7.42;100.00
20620;BME280;10469;42.720;23.252;2024-01-25T14:50:23;95140.28;;;7.38;100.00
20620;BME280;10469;42.720;23.252;2024-01-25T14:52:49;95133.13;;;7.39;100.00
20620;BME280;10469;42.720;23.252;2024-01-25T14:55:14;95141.47;;;7.56;100.00
20620;BME280;10469;42.720;23.252;2024-01-25T14:57:40;95135.50;;;7.60;100.00
20620;BME280;10469;42.720;23.252;2024-01-25T15:00:06;95130.41;;;7.52;100.00
20620;BME280;10469;42.720;23.252;2024-01-25T15:02:35;95127.34;;;7.42;100.00
20620;BME280;10469;42.720;23.252;2024-01-25T15:05:00;95114.59;;;7.50;100.00
20620;BME280;10469;42.720;23.252;2024-01-25T15:07:26;95123.63;;;7.56;100.00
20620;BME280;10469;42.720;23.252;2024-01-25T15:09:52;95119.91;;;7.50;100.00
20620;BME280;10469;42.720;23.252;2024-01-25T15:12:17;95113.78;;;7.50;100.00
20620;BME280;10469;42.720;23.252;2024-01-25T15:14:45;95134.94;;;7.45;100.00
20620;BME280;10469;42.720;23.252;2024-01-25T15:17:10;95124.25;;;7.45;100.00
20620;BME280;10469;42.720;23.252;2024-01-25T15:19:36;95118.94;;;7.45;100.00
20620;BME280;10469;42.720;23.252;2024-01-25T15:22:03;95119.78;;;7.39;100.00
20620;BME280;10469;42.720;23.252;2024-01-25T15:24:29;95142.72;;;7.46;100.00
20620;BME280;10469;42.720;23.252;2024-01-25T15:26:57;95127.56;;;7.40;100.00
20620;BME280;10469;42.720;23.252;2024-01-25T15:29:22;95123.91;;;7.35;100.00
20620;BME280;10469;42.720;23.252;2024-01-25T15:31:48;95145.59;;;7.45;100.00
20620;BME280;10469;42.720;23.252;2024-01-25T15:34:13;95142.53;;;7.41;100.00
20620;BME280;10469;42.720;23.252;2024-01-25T15:36:39;95148.91;;;7.34;100.00
20620;BME280;10469;42.720;23.252;2024-01-25T15:39:09;95146.22;;;7.47;100.00
20620;BME280;10469;42.720;23.252;2024-01-25T15:41:36;95136.63;;;7.33;100.00
20620;BME280;10469;42.720;23.252;2024-01-25T15:44:01;95125.94;;;7.33;100.00
20620;BME280;10469;42.720;23.252;2024-01-25T15:46:27;95133.56;;;7.22;100.00
20620;BME280;10469;42.720;23.252;2024-01-25T15:48:53;95126.63;;;7.15;100.00
20620;BME280;10469;42.720;23.252;2024-01-25T15:51:20;95127.66;;;7.14;100.00
20620;BME280;10469;42.720;23.252;2024-01-25T15:53:47;95142.22;;;7.18;100.00
20620;BME280;10469;42.720;23.252;2024-01-25T15:56:13;95133.16;;;7.12;100.00
20620;BME280;10469;42.720;23.252;2024-01-25T15:58:39;95138.28;;;7.20;100.00
20620;BME280;10469;42.720;23.252;2024-01-25T16:01:05;95133.16;;;7.19;100.00
20620;BME280;10469;42.720;23.252;2024-01-25T16:03:30;95146.50;;;7.19;100.00
20620;BME280;10469;42.720;23.252;2024-01-25T16:05:56;95140.94;;;7.27;100.00
20620;BME280;10469;42.720;23.252;2024-01-25T16:08:22;95135.59;;;7.27;100.00
20620;BME280;10469;42.720;23.252;2024-01-25T16:10:48;95142.22;;;7.18;100.00
20620;BME280;10469;42.720;23.252;2024-01-25T16:13:13;95145.94;;;6.97;100.00
20620;BME280;10469;42.720;23.252;2024-01-25T16:15:39;95144.09;;;7.04;100.00
20620;BME280;10469;42.720;23.252;2024-01-25T16:18:04;95137.13;;;6.83;100.00
20620;BME280;10469;42.720;23.252;2024-01-25T16:20:30;95139.59;;;6.91;100.00
20620;BME280;10469;42.720;23.252;2024-01-25T16:22:56;95145.72;;;6.98;100.00
20620;BME280;10469;42.720;23.252;2024-01-25T16:25:22;95132.22;;;6.87;100.00
20620;BME280;10469;42.720;23.252;2024-01-25T16:27:47;95160.72;;;6.99;100.00
20620;BME280;10469;42.720;23.252;2024-01-25T16:30:14;95135.47;;;6.89;100.00
20620;BME280;10469;42.720;23.252;2024-01-25T16:32:40;95162.94;;;7.09;100.00
20620;BME280;10469;42.720;23.252;2024-01-25T16:35:06;95164.97;;;7.07;100.00
20620;BME280;10469;42.720;23.252;2024-01-25T16:37:32;95168.09;;;7.04;100.00
20620;BME280;10469;42.720;23.252;2024-01-25T16:39:58;95175.22;;;7.03;100.00
20620;BME280;10469;42.720;23.252;2024-01-25T16:42:23;95172.38;;;6.98;100.00
20620;BME280;10469;42.720;23.252;2024-01-25T16:44:49;95171.59;;;6.91;100.00
20620;BME280;10469;42.720;23.252;2024-01-25T16:47:15;95184.09;;;6.84;100.00
20620;BME280;10469;42.720;23.252;2024-01-25T16:49:41;95191.66;;;6.81;100.00
20620;BME280;10469;42.720;23.252;2024-01-25T16:52:07;95199.06;;;6.78;100.00
20620;BME280;10469;42.720;23.252;2024-01-25T16:54:33;95188.38;;;6.59;100.00
20620;BME280;10469;42.720;23.252;2024-01-25T16:56:59;95188.41;;;6.65;100.00
20620;BME280;10469;42.720;23.252;2024-01-25T16:59:25;95189.63;;;6.69;100.00
20620;BME280;10469;42.720;23.252;2024-01-25T17:01:50;95176.50;;;6.54;100.00
20620;BME280;10469;42.720;23.252;2024-01-25T17:04:16;95205.16;;;6.46;100.00
20620;BME280;10469;42.720;23.252;2024-01-25T17:06:44;95195.16;;;6.48;100.00
20620;BME280;10469;42.720;23.252;2024-01-25T17:09:10;95194.88;;;6.29;100.00
20620;BME280;10469;42.720;23.252;2024-01-25T17:11:39;95207.63;;;6.41;100.00
20620;BME280;10469;42.720;23.252;2024-01-25T17:14:07;95196.78;;;6.49;100.00
20620;BME280;10469;42.720;23.252;2024-01-25T17:16:33;95203.13;;;6.48;100.00
20620;BME280;10469;42.720;23.252;2024-01-25T17:18:59;95198.19;;;6.51;100.00
20620;BME280;10469;42.720;23.252;2024-01-25T17:21:26;95186.50;;;6.33;100.00
20620;BME280;10469;42.720;23.252;2024-01-25T17:23:55;95224.03;;;6.44;100.00
20620;BME280;10469;42.720;23.252;2024-01-25T17:26:21;95229.34;;;6.44;100.00
20620;BME280;10469;42.720;23.252;2024-01-25T17:28:50;95226.84;;;6.29;100.00
20620;BME280;10469;42.720;23.252;2024-01-25T17:31:16;95247.38;;;6.42;100.00
20620;BME280;10469;42.720;23.252;2024-01-25T17:33:45;95243.84;;;6.28;100.00
20620;BME280;10469;42.720;23.252;2024-01-25T17:36:12;95239.13;;;6.24;100.00
20620;BME280;10469;42.720;23.252;2024-01-25T17:38:40;95241.00;;;6.37;100.00
20620;BME280;10469;42.720;23.252;2024-01-25T17:41:08;95232.19;;;6.29;100.00
20620;BME280;10469;42.720;23.252;2024-01-25T17:43:34;95245.66;;;6.21;100.00
20620;BME280;10469;42.720;23.252;2024-01-25T17:46:00;95223.13;;;6.11;100.00
20620;BME280;10469;42.720;23.252;2024-01-25T17:48:26;95237.06;;;6.19;100.00
20620;BME280;10469;42.720;23.252;2024-01-25T17:50:51;95232.16;;;6.23;100.00
20620;BME280;10469;42.720;23.252;2024-01-25T17:53:17;95244.06;;;6.27;100.00
20620;BME280;10469;42.720;23.252;2024-01-25T17:55:45;95245.91;;;6.26;100.00
20620;BME280;10469;42.720;23.252;2024-01-25T17:58:11;95239.56;;;6.27;100.00
20620;BME280;10469;42.720;23.252;2024-01-25T18:00:37;95238.13;;;6.32;100.00
20620;BME280;10469;42.720;23.252;2024-01-25T18:03:03;95237.91;;;6.20;100.00
20620;BME280;10469;42.720;23.252;2024-01-25T18:05:29;95239.16;;;6.31;100.00
20620;BME280;10469;42.720;23.252;2024-01-25T18:07:54;95239.75;;;6.26;100.00
20620;BME280;10469;42.720;23.252;2024-01-25T18:10:20;95225.78;;;6.17;100.00
20620;BME280;10469;42.720;23.252;2024-01-25T18:12:47;95223.53;;;6.21;100.00
20620;BME280;10469;42.720;23.252;2024-01-25T18:15:13;95229.50;;;6.23;100.00
20620;BME280;10469;42.720;23.252;2024-01-25T18:17:40;95221.53;;;6.23;100.00
20620;BME280;10469;42.720;23.252;2024-01-25T18:20:10;95194.88;;;6.10;100.00
20620;BME280;10469;42.720;23.252;2024-01-25T18:22:35;95209.41;;;6.14;100.00
20620;BME280;10469;42.720;23.252;2024-01-25T18:25:03;95212.69;;;6.09;100.00
20620;BME280;10469;42.720;23.252;2024-01-25T18:27:28;95239.72;;;6.19;100.00
20620;BME280;10469;42.720;23.252;2024-01-25T18:29:54;95222.31;;;6.10;100.00
20620;BME280;10469;42.720;23.252;2024-01-25T18:32:22;95218.03;;;6.22;100.00
20620;BME280;10469;42.720;23.252;2024-01-25T18:34:48;95231.34;;;6.22;100.00
20620;BME280;10469;42.720;23.252;2024-01-25T18:37:14;95226.03;;;6.22;100.00